createdAt,value
2018-03-19T00:00:30.839Z,22.57
2018-03-19T00:02:58.422Z,26.20
2018-03-19T00:05:26.086Z,23.40
2018-03-19T00:07:53.912Z,26.73
2018-03-19T00:10:21.475Z,26.20
2018-03-19T00:12:49.112Z,28.03
2018-03-19T00:15:16.866Z,30.50
2018-03-19T00:17:44.685Z,27.00
2018-03-19T00:20:12.505Z,26.47
2018-03-19T00:22:40.061Z,28.23
2018-03-19T00:25:07.731Z,32.27
2018-03-19T00:27:35.458Z,32.83
2018-03-19T00:30:03.377Z,27.83
2018-03-19T00:32:30.958Z,30.70
2018-03-19T00:34:58.673Z,31.83
2018-03-19T00:37:26.413Z,26.03
2018-03-19T00:39:53.969Z,25.83
2018-03-19T00:42:21.537Z,25.90
2018-03-19T00:44:49.102Z,31.80
2018-03-19T00:47:16.893Z,34.17
2018-03-19T00:49:44.463Z,30.63
2018-03-19T00:52:12.085Z,27.53
2018-03-19T00:54:39.657Z,32.83
2018-03-19T00:57:07.296Z,28.23
2018-03-19T00:59:34.974Z,27.10
2018-03-19T01:02:02.607Z,29.70
2018-03-19T01:04:30.182Z,26.33
2018-03-19T01:06:57.745Z,27.90
2018-03-19T01:09:25.314Z,29.43
2018-03-19T01:11:52.875Z,30.10
2018-03-19T01:14:20.536Z,27.50
2018-03-19T01:16:48.101Z,28.53
2018-03-19T01:19:15.722Z,27.63
2018-03-19T01:21:43.553Z,30.33
2018-03-19T01:24:11.124Z,29.87
2018-03-19T01:26:38.859Z,32.53
2018-03-19T01:29:06.422Z,32.43
2018-03-19T01:31:33.991Z,29.13
2018-03-19T01:34:01.632Z,31.07
2018-03-19T01:36:29.251Z,27.53
2018-03-19T01:38:56.869Z,30.97
2018-03-19T01:41:24.565Z,33.83
2018-03-19T01:43:52.314Z,39.40
2018-03-19T01:46:20.012Z,33.90
2018-03-19T01:48:47.594Z,36.83
2018-03-19T01:51:15.775Z,35.37
2018-03-19T01:53:43.350Z,34.43
2018-03-19T01:56:10.919Z,41.50
2018-03-19T01:58:38.726Z,33.03
2018-03-19T02:01:06.294Z,38.50
2018-03-19T02:03:33.861Z,36.23
2018-03-19T02:06:01.446Z,39.37
2018-03-19T02:08:29.296Z,33.77
2018-03-19T02:10:56.870Z,33.50
2018-03-19T02:13:24.477Z,34.50
2018-03-19T02:15:52.098Z,37.73
2018-03-19T02:18:19.679Z,36.47
2018-03-19T02:20:47.257Z,42.90
2018-03-19T02:23:14.882Z,34.27
2018-03-19T02:25:42.596Z,38.47
2018-03-19T02:28:10.199Z,34.80
2018-03-19T02:30:37.761Z,28.27
2018-03-19T02:33:05.391Z,35.30
2018-03-19T02:35:32.963Z,32.33
2018-03-19T02:38:00.712Z,33.00
2018-03-19T02:40:28.319Z,31.47
2018-03-19T02:42:55.896Z,38.47
2018-03-19T02:45:23.506Z,41.93
2018-03-19T02:47:51.080Z,31.37
2018-03-19T02:50:18.901Z,34.57
2018-03-19T02:52:46.471Z,33.60
2018-03-19T02:55:14.340Z,32.27
2018-03-19T02:57:41.902Z,33.67
2018-03-19T03:00:09.522Z,34.63
2018-03-19T03:02:37.113Z,33.33
2018-03-19T03:05:04.733Z,27.97
2018-03-19T03:07:33.713Z,31.47
2018-03-19T03:10:01.433Z,34.53
2018-03-19T03:12:29.146Z,33.97
2018-03-19T03:14:56.701Z,36.07
2018-03-19T03:17:24.318Z,40.00
2018-03-19T03:19:51.939Z,37.90
2018-03-19T03:22:19.742Z,36.07
2018-03-19T03:24:47.314Z,36.43
2018-03-19T03:27:15.042Z,33.20
2018-03-19T03:29:42.796Z,33.88
2018-03-19T03:32:10.381Z,34.47
2018-03-19T03:34:38.016Z,38.17
2018-03-19T03:37:05.711Z,33.17
2018-03-19T03:39:33.328Z,36.47
2018-03-19T03:42:01.085Z,37.00
2018-03-19T03:44:28.684Z,35.60
2018-03-19T03:46:56.420Z,33.50
2018-03-19T03:49:23.981Z,29.40
2018-03-19T03:51:51.549Z,37.03
2018-03-19T03:54:19.376Z,33.70
2018-03-19T03:56:46.950Z,36.10
2018-03-19T03:59:14.676Z,35.07
2018-03-19T04:01:42.529Z,33.65
2018-03-19T04:04:10.348Z,36.80
2018-03-19T04:06:37.923Z,37.90
2018-03-19T04:09:05.786Z,38.83
2018-03-19T04:11:33.345Z,32.53
2018-03-19T04:14:01.120Z,35.93
2018-03-19T04:16:28.678Z,32.23
2018-03-19T04:18:56.337Z,35.83
2018-03-19T04:21:23.922Z,39.60
2018-03-19T04:23:51.729Z,37.47
2018-03-19T04:26:19.298Z,36.73
2018-03-19T04:28:46.894Z,36.20
2018-03-19T04:31:14.648Z,33.93
2018-03-19T04:33:42.467Z,40.53
2018-03-19T04:36:10.287Z,39.00
2018-03-19T04:38:37.852Z,41.43
2018-03-19T04:41:05.620Z,37.13
2018-03-19T04:43:33.438Z,39.70
2018-03-19T04:46:01.054Z,39.97
2018-03-19T04:48:28.771Z,39.50
2018-03-19T04:50:56.407Z,39.77
2018-03-19T04:53:23.984Z,40.93
2018-03-19T04:55:51.542Z,41.70
2018-03-19T04:58:19.226Z,41.67
2018-03-19T05:00:47.064Z,34.90
2018-03-19T05:03:15.354Z,37.60
2018-03-19T05:05:43.103Z,43.00
2018-03-19T05:08:10.802Z,36.37
2018-03-19T05:10:38.515Z,40.37
2018-03-19T05:13:06.091Z,38.37
2018-03-19T05:15:33.867Z,35.80
2018-03-19T05:18:01.634Z,33.83
2018-03-19T05:20:29.206Z,39.50
2018-03-19T05:22:56.798Z,39.90
2018-03-19T05:25:24.565Z,39.87
2018-03-19T05:27:52.134Z,44.10
2018-03-19T05:30:19.758Z,34.37
2018-03-19T05:32:47.502Z,38.17
2018-03-19T05:35:15.115Z,37.07
2018-03-19T05:37:42.694Z,34.17
2018-03-19T05:40:10.304Z,23.65
2018-03-19T05:42:37.899Z,25.10
2018-03-19T05:45:05.574Z,24.97
2018-03-19T05:47:33.196Z,23.30
2018-03-19T05:50:00.942Z,20.77
2018-03-19T05:52:28.750Z,21.37
2018-03-19T05:54:56.321Z,24.60
2018-03-19T05:57:23.974Z,24.67
2018-03-19T05:59:51.558Z,23.70
2018-03-19T06:02:19.300Z,24.17
2018-03-19T06:04:47.138Z,22.67
2018-03-19T06:07:14.720Z,17.33
2018-03-19T06:09:42.449Z,23.43
2018-03-19T06:12:10.007Z,24.27
2018-03-19T06:14:37.638Z,19.93
2018-03-19T06:17:05.327Z,23.60
2018-03-19T06:19:32.898Z,20.60
2018-03-19T06:22:00.479Z,23.43
2018-03-19T06:24:28.281Z,23.03
2018-03-19T06:26:55.949Z,31.57
2018-03-19T06:29:23.486Z,35.53
2018-03-19T06:31:51.235Z,29.50
2018-03-19T06:34:19.054Z,36.17
2018-03-19T06:36:46.872Z,31.73
2018-03-19T06:39:14.525Z,32.70
2018-03-19T06:41:42.223Z,32.43
2018-03-19T06:44:10.031Z,30.70
2018-03-19T06:46:37.600Z,94.90
2018-03-19T06:49:05.231Z,35.57
2018-03-19T06:51:32.817Z,33.20
2018-03-19T06:54:00.492Z,27.93
2018-03-19T06:56:28.317Z,26.40
2018-03-19T06:58:55.881Z,29.17
2018-03-19T07:01:23.475Z,34.40
2018-03-19T07:03:51.036Z,40.73
2018-03-19T07:06:18.707Z,35.50
2018-03-19T07:08:46.265Z,34.50
2018-03-19T07:11:13.915Z,37.13
2018-03-19T07:13:41.532Z,37.10
2018-03-19T07:16:09.140Z,37.23
2018-03-19T07:18:36.877Z,33.80
2018-03-19T07:21:04.450Z,30.60
2018-03-19T07:23:32.074Z,32.00
2018-03-19T07:25:59.723Z,37.10
2018-03-19T07:28:27.551Z,39.07
2018-03-19T07:30:55.369Z,38.00
2018-03-19T07:33:22.948Z,31.13
2018-03-19T07:35:50.705Z,34.83
2018-03-19T07:38:18.526Z,37.40
2018-03-19T07:40:46.146Z,28.97
2018-03-19T07:43:13.697Z,43.97
2018-03-19T07:45:41.449Z,32.30
2018-03-19T07:48:09.014Z,36.30
2018-03-19T07:50:36.585Z,41.23
2018-03-19T07:53:04.216Z,41.03
2018-03-19T07:55:32.050Z,31.97
2018-03-19T07:57:59.666Z,34.93
2018-03-19T08:00:27.624Z,32.70
2018-03-19T08:02:55.189Z,36.93
2018-03-19T08:05:22.758Z,35.73
2018-03-19T08:07:50.314Z,34.00
2018-03-19T08:10:17.889Z,33.20
2018-03-19T08:12:45.676Z,37.70
2018-03-19T08:15:13.499Z,34.27
2018-03-19T08:17:41.062Z,31.73
2018-03-19T08:20:08.637Z,34.73
2018-03-19T08:22:36.206Z,34.17
2018-03-19T08:25:03.862Z,31.07
2018-03-19T08:27:31.430Z,43.03
2018-03-19T08:29:58.994Z,40.07
2018-03-19T08:32:26.604Z,30.73
2018-03-19T08:34:54.320Z,30.27
2018-03-19T08:37:21.873Z,39.63
2018-03-19T08:39:49.443Z,35.93
2018-03-19T08:42:17.005Z,29.80
2018-03-19T08:44:44.810Z,29.60
2018-03-19T08:47:12.370Z,31.33
2018-03-19T08:49:39.987Z,28.57
2018-03-19T08:52:07.558Z,32.27
2018-03-19T08:54:35.381Z,27.87
2018-03-19T08:57:02.954Z,29.67
2018-03-19T08:59:30.525Z,27.47
2018-03-19T09:01:58.142Z,32.53
2018-03-19T09:04:25.698Z,29.57
2018-03-19T09:06:53.259Z,26.67
2018-03-19T09:09:21.092Z,33.23
2018-03-19T09:11:48.650Z,30.43
2018-03-19T09:14:16.301Z,30.80
2018-03-19T09:16:44.015Z,29.13
2018-03-19T09:19:11.569Z,23.57
2018-03-19T09:21:39.206Z,32.53
2018-03-19T09:24:06.996Z,30.63
2018-03-19T09:26:34.819Z,32.40
2018-03-19T09:29:02.427Z,28.37
2018-03-19T09:31:30.035Z,26.23
2018-03-19T09:33:57.610Z,29.80
2018-03-19T09:36:25.174Z,26.03
2018-03-19T09:38:52.746Z,28.83
2018-03-19T09:41:20.330Z,32.90
2018-03-19T09:43:48.031Z,28.20
2018-03-19T09:46:15.594Z,25.77
2018-03-19T09:48:43.159Z,24.97
2018-03-19T09:51:10.767Z,29.90
2018-03-19T09:53:38.325Z,72.93
2018-03-19T09:56:06.131Z,30.23
2018-03-19T09:58:33.690Z,41.17
2018-03-19T10:01:01.311Z,28.47
2018-03-19T10:03:29.063Z,32.03
2018-03-19T10:05:56.804Z,38.57
2018-03-19T10:08:24.621Z,28.63
2018-03-19T10:10:52.213Z,29.50
2018-03-19T10:13:19.867Z,29.90
2018-03-19T10:15:47.465Z,29.60
2018-03-19T10:18:15.092Z,33.03
2018-03-19T10:20:42.654Z,38.10
2018-03-19T10:23:10.401Z,28.73
2018-03-19T10:25:37.981Z,29.20
2018-03-19T10:28:05.548Z,30.50
2018-03-19T10:30:33.284Z,47.77
2018-03-19T10:33:00.859Z,51.63
2018-03-19T10:35:28.509Z,35.97
2018-03-19T10:37:56.147Z,30.43
2018-03-19T10:40:23.851Z,32.40
2018-03-19T10:42:51.439Z,37.10
2018-03-19T10:45:19.003Z,42.13
2018-03-19T10:47:46.582Z,40.97
2018-03-19T10:50:14.328Z,47.73
2018-03-19T10:52:41.915Z,158.13
2018-03-19T10:55:09.661Z,75.03
2018-03-19T10:57:37.235Z,58.73
2018-03-19T11:00:04.864Z,65.13
2018-03-19T11:02:32.612Z,245.03
2018-03-19T11:05:05.603Z,31.57
2018-03-19T11:07:38.829Z,62.03
2018-03-19T11:10:06.423Z,106.97
2018-03-19T12:31:49.716Z,46.17
2018-03-19T12:34:17.429Z,61.10
2018-03-19T12:36:45.004Z,116.43
2018-03-19T12:39:12.591Z,60.37
2018-03-19T12:41:40.281Z,44.33
2018-03-19T12:44:07.846Z,49.83
2018-03-19T12:46:35.414Z,55.43
2018-03-19T12:49:03.031Z,60.60
2018-03-19T12:51:31.399Z,54.03
2018-03-19T12:53:58.962Z,188.73
2018-03-19T12:56:26.566Z,45.90
2018-03-19T12:58:54.275Z,50.73
2018-03-19T13:01:21.846Z,44.00
2018-03-19T13:03:49.430Z,42.70
2018-03-19T13:06:16.993Z,45.57
2018-03-19T13:08:44.639Z,50.10
2018-03-19T13:11:12.343Z,150.87
2018-03-19T13:13:39.901Z,81.67
2018-03-19T13:16:07.735Z,75.97
2018-03-19T13:18:35.308Z,41.17
2018-03-19T13:21:02.974Z,48.50
2018-03-19T13:23:30.579Z,56.03
2018-03-19T13:25:58.205Z,50.40
2018-03-19T13:28:25.776Z,43.53
2018-03-19T13:30:53.343Z,41.83
2018-03-19T13:33:21.060Z,45.53
2018-03-19T13:35:48.658Z,41.17
2018-03-19T13:38:16.222Z,38.43
2018-03-19T13:40:43.813Z,41.40
2018-03-19T13:43:11.384Z,37.20
2018-03-19T13:45:38.951Z,39.07
2018-03-19T13:48:06.539Z,42.00
2018-03-19T13:50:34.109Z,50.67
2018-03-19T13:53:01.698Z,52.13
2018-03-19T13:55:29.261Z,47.13
2018-03-19T13:57:56.901Z,52.00
2018-03-19T14:00:24.462Z,46.33
2018-03-19T14:02:52.022Z,56.77
2018-03-19T14:05:19.589Z,58.43
2018-03-19T14:07:47.161Z,43.50
2018-03-19T14:10:14.749Z,53.03
2018-03-19T14:12:42.432Z,45.17
2018-03-19T14:15:10.189Z,49.13
2018-03-19T14:17:37.807Z,45.17
2018-03-19T14:20:05.428Z,66.40
2018-03-19T14:22:32.982Z,41.53
2018-03-19T14:25:00.544Z,55.50
2018-03-19T14:27:28.120Z,40.20
2018-03-19T14:29:55.687Z,46.77
2018-03-19T14:32:23.283Z,36.33
2018-03-19T14:34:50.866Z,40.93
2018-03-19T14:37:18.448Z,39.70
2018-03-19T14:39:46.012Z,37.30
2018-03-19T14:42:13.703Z,44.57
2018-03-19T14:44:41.286Z,45.20
2018-03-19T14:47:08.846Z,46.40
2018-03-19T14:49:36.490Z,41.67
2018-03-19T14:52:04.137Z,71.00
2018-03-19T14:54:31.758Z,78.83
2018-03-19T14:56:59.361Z,79.23
2018-03-19T14:59:26.941Z,136.60
2018-03-19T15:01:54.505Z,60.60
2018-03-19T15:04:22.823Z,42.07
2018-03-19T15:06:50.391Z,38.57
2018-03-19T15:09:17.951Z,176.67
2018-03-19T15:11:45.555Z,248.57
2018-03-19T15:14:13.171Z,58.50
2018-03-19T15:16:40.718Z,68.07
2018-03-19T15:19:08.333Z,167.80
2018-03-19T15:21:35.901Z,73.97
2018-03-19T15:24:03.566Z,259.27
2018-03-19T15:26:31.185Z,195.13
2018-03-19T15:28:58.742Z,114.30
2018-03-19T15:31:26.319Z,44.37
2018-03-19T15:33:53.947Z,98.73
2018-03-19T15:36:21.552Z,188.60
2018-03-19T15:38:49.131Z,61.43
2018-03-19T15:41:16.710Z,123.07
2018-03-19T15:43:44.287Z,51.77
2018-03-19T15:46:11.871Z,47.87
2018-03-19T15:48:39.493Z,45.87
2018-03-19T15:51:07.156Z,56.80
2018-03-19T15:53:34.743Z,88.23
2018-03-19T15:56:02.330Z,70.03
2018-03-19T15:58:29.899Z,59.63
2018-03-19T16:00:57.478Z,56.17
2018-03-19T16:03:25.048Z,62.97
2018-03-19T16:05:52.736Z,81.73
2018-03-19T16:08:20.384Z,68.60
2018-03-19T16:10:47.995Z,51.57
2018-03-19T16:13:15.719Z,55.63
2018-03-19T16:15:43.301Z,57.23
2018-03-19T16:18:10.881Z,52.33
2018-03-19T16:20:38.673Z,86.40
2018-03-19T16:23:06.262Z,80.03
2018-03-19T16:25:33.911Z,63.00
2018-03-19T16:28:01.514Z,68.70
2018-03-19T16:30:29.087Z,65.17
2018-03-19T16:32:56.694Z,63.57
2018-03-19T16:35:24.254Z,85.93
2018-03-19T16:37:51.816Z,75.13
2018-03-19T16:40:19.460Z,77.67
2018-03-19T16:42:47.015Z,97.73
2018-03-19T16:45:14.577Z,83.90
2018-03-19T16:47:42.273Z,70.43
2018-03-19T16:50:09.895Z,93.70
2018-03-19T16:52:37.511Z,87.50
2018-03-19T16:55:05.084Z,89.70
2018-03-19T16:57:32.651Z,74.77
2018-03-19T17:00:00.228Z,77.30
2018-03-19T17:02:27.806Z,79.27
2018-03-19T17:04:55.362Z,95.33
2018-03-19T17:07:22.967Z,68.53
2018-03-19T17:09:50.532Z,63.97
2018-03-19T17:12:18.147Z,64.03
2018-03-19T17:14:45.714Z,61.00
2018-03-19T17:17:13.275Z,66.63
2018-03-19T17:19:40.894Z,72.97
2018-03-19T17:22:08.490Z,51.83
2018-03-19T17:24:36.423Z,52.07
2018-03-19T17:27:04.057Z,60.67
2018-03-19T17:29:31.625Z,80.93
2018-03-19T17:31:59.234Z,66.30
2018-03-19T17:34:26.810Z,66.40
2018-03-19T17:36:54.374Z,77.10
2018-03-19T17:39:21.929Z,79.67
2018-03-19T17:41:49.522Z,55.83
2018-03-19T17:44:17.138Z,60.70
2018-03-19T17:46:44.735Z,90.27
2018-03-19T17:49:12.301Z,76.97
2018-03-19T17:51:39.898Z,58.20
2018-03-19T17:54:08.382Z,78.10
2018-03-19T17:56:36.005Z,158.17
2018-03-19T17:59:03.593Z,122.67
2018-03-19T18:01:31.176Z,256.93
2018-03-19T18:03:58.780Z,225.27
2018-03-19T18:06:26.345Z,169.73
2018-03-19T18:08:54.134Z,130.10
2018-03-19T18:11:21.876Z,114.17
2018-03-19T18:13:49.570Z,119.93
2018-03-19T18:16:17.138Z,57.17
2018-03-19T18:18:44.698Z,47.40
2018-03-19T18:21:12.272Z,52.80
2018-03-19T18:23:39.973Z,42.47
2018-03-19T18:26:07.562Z,45.47
2018-03-19T18:28:35.213Z,43.30
2018-03-19T18:31:02.826Z,47.33
2018-03-19T18:33:30.403Z,63.80
2018-03-19T18:35:57.977Z,63.37
2018-03-19T18:38:25.598Z,56.13
2018-03-19T18:40:53.404Z,64.63
2018-03-19T18:43:20.982Z,55.23
2018-03-19T18:45:48.701Z,51.67
2018-03-19T18:48:16.558Z,56.30
2018-03-19T18:50:44.147Z,47.97
2018-03-19T18:53:11.710Z,51.57
2018-03-19T18:55:39.314Z,104.37
2018-03-19T18:58:06.890Z,72.50
2018-03-19T19:00:34.475Z,102.90
2018-03-19T19:03:02.159Z,117.27
2018-03-19T19:05:29.941Z,88.87
2018-03-19T19:07:57.671Z,92.80
2018-03-19T19:10:25.525Z,54.77
2018-03-19T19:12:53.339Z,53.47
2018-03-19T19:15:20.959Z,47.37
2018-03-19T19:17:48.554Z,63.33
2018-03-19T19:20:16.125Z,61.80
2018-03-19T19:22:43.768Z,70.33
2018-03-19T19:25:11.335Z,211.50
2018-03-19T19:27:38.914Z,239.83
2018-03-19T19:30:06.508Z,92.43
2018-03-19T19:32:34.284Z,71.50
2018-03-19T19:35:02.217Z,116.93
2018-03-19T19:37:30.021Z,126.43
2018-03-19T19:39:57.837Z,57.23
2018-03-19T19:42:25.650Z,170.00
2018-03-19T19:44:53.475Z,194.63
2018-03-19T19:47:21.088Z,151.83
2018-03-19T19:49:48.726Z,112.63
2018-03-19T19:52:16.308Z,72.50
2018-03-19T19:54:43.936Z,109.40
2018-03-19T19:57:11.556Z,111.00
2018-03-19T19:59:39.128Z,115.50
2018-03-19T20:02:06.708Z,149.37
2018-03-19T20:04:34.309Z,59.70
2018-03-19T20:07:01.932Z,168.40
2018-03-19T20:09:29.502Z,121.10
2018-03-19T20:11:57.067Z,67.57
2018-03-19T20:14:24.707Z,54.77
2018-03-19T20:16:52.330Z,84.03
2018-03-19T20:19:19.886Z,58.43
2018-03-19T20:21:47.478Z,55.27
2018-03-19T20:24:15.329Z,55.00
2018-03-19T20:26:42.924Z,52.23
2018-03-19T20:29:10.574Z,80.20
2018-03-19T20:31:38.200Z,77.27
2018-03-19T20:34:05.826Z,59.00
2018-03-19T20:36:33.713Z,59.33
2018-03-19T20:39:01.318Z,66.53
2018-03-19T20:41:29.031Z,68.03
2018-03-19T20:43:56.698Z,60.23
2018-03-19T20:46:24.524Z,58.67
2018-03-19T20:48:52.134Z,54.27
2018-03-19T20:51:19.770Z,57.50
2018-03-19T20:53:47.486Z,111.00
2018-03-19T20:56:15.297Z,50.60
2018-03-19T20:58:43.128Z,68.87
2018-03-19T21:01:10.823Z,50.87
2018-03-19T21:03:38.467Z,69.80
2018-03-19T21:06:06.034Z,62.67
2018-03-19T21:08:33.760Z,72.97
2018-03-19T21:11:01.607Z,67.60
2018-03-19T21:13:29.326Z,76.70
2018-03-19T21:15:57.143Z,44.13
2018-03-19T21:18:24.747Z,75.20
2018-03-19T21:20:52.314Z,153.37
2018-03-19T21:23:19.968Z,143.30
2018-03-19T21:25:47.558Z,72.07
2018-03-19T21:28:15.166Z,40.60
2018-03-19T21:30:42.793Z,46.03
2018-03-19T21:33:10.368Z,49.10
2018-03-19T21:35:38.000Z,57.10
2018-03-19T21:38:05.613Z,41.87
2018-03-19T21:40:33.349Z,69.27
2018-03-19T21:43:01.144Z,48.43
2018-03-19T21:45:28.960Z,53.47
2018-03-19T21:47:56.784Z,55.90
2018-03-19T21:50:24.598Z,39.60
2018-03-19T21:52:52.181Z,32.33
2018-03-19T21:55:19.746Z,40.27
2018-03-19T21:57:47.322Z,30.37
2018-03-19T22:00:14.891Z,34.03
2018-03-19T22:02:42.479Z,34.70
2018-03-19T22:05:10.304Z,35.03
2018-03-19T22:07:37.888Z,34.00
2018-03-19T22:10:05.741Z,41.90
2018-03-19T22:12:33.331Z,50.90
2018-03-19T22:15:01.044Z,42.97
2018-03-19T22:17:28.601Z,45.33
2018-03-19T22:19:56.218Z,37.50
2018-03-19T22:22:23.793Z,44.33
2018-03-19T22:24:51.354Z,33.83
2018-03-19T22:27:18.933Z,33.10
2018-03-19T22:29:46.490Z,35.17
2018-03-19T22:32:14.059Z,67.67
2018-03-19T22:34:41.819Z,30.97
2018-03-19T22:37:09.386Z,29.17
2018-03-19T22:39:37.066Z,29.13
2018-03-19T22:42:04.874Z,37.47
2018-03-19T22:44:32.449Z,39.77
2018-03-19T22:47:00.078Z,47.57
2018-03-19T22:49:27.794Z,37.43
2018-03-19T22:51:55.427Z,35.20
2018-03-19T22:54:22.994Z,41.40
2018-03-19T22:56:50.550Z,33.53
2018-03-19T22:59:18.299Z,34.93
2018-03-19T23:01:45.905Z,31.03
2018-03-19T23:04:13.529Z,28.40
2018-03-19T23:06:41.098Z,28.90
2018-03-19T23:09:08.771Z,31.20
2018-03-19T23:11:36.335Z,35.73
2018-03-19T23:14:03.898Z,27.77
2018-03-19T23:16:31.466Z,27.17
2018-03-19T23:18:59.031Z,26.63
2018-03-19T23:21:26.860Z,26.80
2018-03-19T23:23:54.467Z,27.50
2018-03-19T23:26:22.196Z,32.83
2018-03-19T23:28:50.015Z,30.20
2018-03-19T23:31:17.574Z,30.20
2018-03-19T23:33:45.139Z,30.73
2018-03-19T23:36:12.702Z,28.03
2018-03-19T23:38:40.377Z,29.60
2018-03-19T23:41:07.933Z,29.43
2018-03-19T23:43:35.486Z,26.13
2018-03-19T23:46:03.070Z,28.07
2018-03-19T23:48:30.859Z,26.73
2018-03-19T23:50:58.422Z,24.37
2018-03-19T23:53:25.980Z,25.40
2018-03-19T23:55:53.550Z,24.87
2018-03-19T23:58:21.330Z,30.90
